createdAt,value
2019-03-28T00:00:34.528Z,19.06
2019-03-28T00:01:31.125Z,19.06
2019-03-28T00:02:27.734Z,19.06
2019-03-28T00:03:24.415Z,19.06
2019-03-28T00:04:21.153Z,19.06
2019-03-28T00:05:17.860Z,19.06
2019-03-28T00:06:14.544Z,19.06
2019-03-28T00:07:11.148Z,19.06
2019-03-28T00:08:07.838Z,19.06
2019-03-28T00:09:07.535Z,19.06
2019-03-28T00:10:03.028Z,19.06
2019-03-28T00:11:00.171Z,19.06
2019-03-28T00:11:57.098Z,19.06
2019-03-28T00:12:53.764Z,19.06
2019-03-28T00:13:50.360Z,19.06
2019-03-28T00:14:46.956Z,19.06
2019-03-28T00:15:43.569Z,19.06
2019-03-28T00:16:40.265Z,19.00
2019-03-28T00:17:37.279Z,19.00
2019-03-28T00:18:34.064Z,19.06
2019-03-28T00:19:30.668Z,19.00
2019-03-28T00:20:27.397Z,19.00
2019-03-28T00:21:24.100Z,19.00
2019-03-28T00:22:33.020Z,19.00
2019-03-28T00:23:54.941Z,19.00
2019-03-28T00:24:57.025Z,19.00
2019-03-28T00:25:53.753Z,19.00
2019-03-28T00:26:50.460Z,19.00
2019-03-28T00:27:47.171Z,19.00
2019-03-28T00:28:43.852Z,19.00
2019-03-28T00:29:40.548Z,19.00
2019-03-28T00:30:37.232Z,19.00
2019-03-28T00:31:33.870Z,19.00
2019-03-28T00:32:30.569Z,19.00
2019-03-28T00:33:27.165Z,19.00
2019-03-28T00:34:23.857Z,19.00
2019-03-28T00:35:20.564Z,19.00
2019-03-28T00:36:17.287Z,19.00
2019-03-28T00:37:13.970Z,19.00
2019-03-28T00:38:10.683Z,19.00
2019-03-28T00:39:07.380Z,18.94
2019-03-28T00:40:04.076Z,19.00
2019-03-28T00:41:00.773Z,18.94
2019-03-28T00:41:57.468Z,18.94
2019-03-28T00:42:54.191Z,18.94
2019-03-28T00:43:51.143Z,18.94
2019-03-28T00:44:47.795Z,18.94
2019-03-28T00:45:44.717Z,18.94
2019-03-28T00:46:41.500Z,18.94
2019-03-28T00:47:38.188Z,18.94
2019-03-28T00:48:34.779Z,18.94
2019-03-28T00:49:31.476Z,18.94
2019-03-28T00:50:28.167Z,18.94
2019-03-28T00:51:25.154Z,18.94
2019-03-28T00:52:21.885Z,18.94
2019-03-28T00:53:18.608Z,18.94
2019-03-28T00:54:15.318Z,18.94
2019-03-28T00:55:12.000Z,18.94
2019-03-28T00:56:08.700Z,18.94
2019-03-28T00:57:05.405Z,18.94
2019-03-28T00:58:02.096Z,18.94
2019-03-28T00:58:59.126Z,18.94
2019-03-28T00:59:55.825Z,18.94
2019-03-28T01:00:52.532Z,18.94
2019-03-28T01:01:49.231Z,18.94
2019-03-28T01:02:46.106Z,18.94
2019-03-28T01:03:42.732Z,18.94
2019-03-28T01:04:39.456Z,18.94
2019-03-28T01:05:36.060Z,18.94
2019-03-28T01:06:32.764Z,18.94
2019-03-28T01:07:29.360Z,18.94
2019-03-28T01:08:26.060Z,18.94
2019-03-28T01:09:22.777Z,18.94
2019-03-28T01:10:19.483Z,18.87
2019-03-28T01:11:16.189Z,18.87
2019-03-28T01:12:12.888Z,18.87
2019-03-28T01:13:09.583Z,18.87
2019-03-28T01:14:06.309Z,18.87
2019-03-28T01:15:03.007Z,18.87
2019-03-28T01:15:59.726Z,18.87
2019-03-28T01:16:56.424Z,18.87
2019-03-28T01:17:53.130Z,18.87
2019-03-28T01:18:49.854Z,18.87
2019-03-28T01:19:46.590Z,18.87
2019-03-28T01:20:43.300Z,18.87
2019-03-28T01:21:40.078Z,18.87
2019-03-28T01:22:36.720Z,18.87
2019-03-28T01:23:33.336Z,18.87
2019-03-28T01:24:30.050Z,18.87
2019-03-28T01:25:27.471Z,18.87
2019-03-28T01:26:24.281Z,18.87
2019-03-28T01:27:20.986Z,18.87
2019-03-28T01:28:17.688Z,18.87
2019-03-28T01:29:14.309Z,18.87
2019-03-28T01:30:11.033Z,18.87
2019-03-28T01:31:07.744Z,18.87
2019-03-28T01:32:04.445Z,18.87
2019-03-28T01:33:01.161Z,18.87
2019-03-28T01:33:57.865Z,18.87
2019-03-28T01:34:54.560Z,18.87
2019-03-28T01:35:51.296Z,18.87
2019-03-28T01:36:48.006Z,18.87
2019-03-28T01:37:44.699Z,18.87
2019-03-28T01:38:41.308Z,18.81
2019-03-28T01:39:38.040Z,18.87
2019-03-28T01:40:34.751Z,18.81
2019-03-28T01:41:31.355Z,18.81
2019-03-28T01:42:28.054Z,18.81
2019-03-28T01:43:24.654Z,18.81
2019-03-28T01:44:21.355Z,18.81
2019-03-28T01:45:17.976Z,18.81
2019-03-28T01:46:14.672Z,18.81
2019-03-28T01:47:11.289Z,18.81
2019-03-28T01:48:08.325Z,18.81
2019-03-28T01:49:05.214Z,18.81
2019-03-28T01:50:01.913Z,18.81
2019-03-28T01:50:58.640Z,18.81
2019-03-28T01:51:56.148Z,18.81
2019-03-28T01:52:52.857Z,18.81
2019-03-28T01:53:49.569Z,18.81
2019-03-28T01:54:46.263Z,18.81
2019-03-28T01:55:42.969Z,18.81
2019-03-28T01:56:39.621Z,18.81
2019-03-28T01:57:36.328Z,18.81
2019-03-28T01:58:33.035Z,18.81
2019-03-28T01:59:29.745Z,18.81
2019-03-28T02:00:26.442Z,18.81
2019-03-28T02:01:23.156Z,18.81
2019-03-28T02:02:20.218Z,18.81
2019-03-28T02:03:16.984Z,18.81
2019-03-28T02:04:13.696Z,18.81
2019-03-28T02:05:10.405Z,18.81
2019-03-28T02:06:07.123Z,18.81
2019-03-28T02:07:03.832Z,18.81
2019-03-28T02:08:02.742Z,18.81
2019-03-28T02:08:59.095Z,18.81
2019-03-28T02:09:55.812Z,18.81
2019-03-28T02:10:52.520Z,18.81
2019-03-28T02:11:49.220Z,18.81
2019-03-28T02:12:45.955Z,18.81
2019-03-28T02:13:42.665Z,18.75
2019-03-28T02:14:39.372Z,18.81
2019-03-28T02:15:36.068Z,18.81
2019-03-28T02:16:32.689Z,18.81
2019-03-28T02:17:29.398Z,18.81
2019-03-28T02:18:26.128Z,18.81
2019-03-28T02:19:22.840Z,18.81
2019-03-28T02:20:19.532Z,18.75
2019-03-28T02:21:16.146Z,18.81
2019-03-28T02:22:12.875Z,18.75
2019-03-28T02:23:10.361Z,18.81
2019-03-28T02:24:07.308Z,18.75
2019-03-28T02:25:04.029Z,18.81
2019-03-28T02:26:00.742Z,18.75
2019-03-28T02:26:57.446Z,18.75
2019-03-28T02:27:54.152Z,18.75
2019-03-28T02:28:50.852Z,18.75
2019-03-28T02:29:47.552Z,18.75
2019-03-28T02:30:44.265Z,18.75
2019-03-28T02:31:40.977Z,18.75
2019-03-28T02:32:37.689Z,18.75
2019-03-28T02:33:34.404Z,18.75
2019-03-28T02:34:31.011Z,18.75
2019-03-28T02:35:27.630Z,18.75
2019-03-28T02:36:24.329Z,18.75
2019-03-28T02:37:20.943Z,18.75
2019-03-28T02:38:17.658Z,18.75
2019-03-28T02:39:14.390Z,18.75
2019-03-28T02:40:11.101Z,18.75
2019-03-28T02:41:08.670Z,18.75
2019-03-28T02:42:05.513Z,18.75
2019-03-28T02:43:02.230Z,18.75
2019-03-28T02:43:58.941Z,18.75
2019-03-28T02:44:55.670Z,18.75
2019-03-28T02:45:52.390Z,18.75
2019-03-28T02:46:49.109Z,18.75
2019-03-28T02:47:45.817Z,18.75
2019-03-28T02:48:42.516Z,18.75
2019-03-28T02:49:39.213Z,18.75
2019-03-28T02:50:35.922Z,18.75
2019-03-28T02:51:32.629Z,18.75
2019-03-28T02:52:29.356Z,18.75
2019-03-28T02:53:26.033Z,18.75
2019-03-28T02:54:22.741Z,18.75
2019-03-28T02:55:19.486Z,18.75
2019-03-28T02:56:16.275Z,18.75
2019-03-28T02:57:13.009Z,18.75
2019-03-28T02:58:10.769Z,18.75
2019-03-28T02:59:07.952Z,18.75
2019-03-28T03:00:04.649Z,18.75
2019-03-28T03:01:01.377Z,18.75
2019-03-28T03:01:58.080Z,18.75
2019-03-28T03:02:54.807Z,18.75
2019-03-28T03:03:51.506Z,18.75
2019-03-28T03:04:48.224Z,18.75
2019-03-28T03:05:45.117Z,18.75
2019-03-28T03:06:41.849Z,18.69
2019-03-28T03:07:38.544Z,18.75
2019-03-28T03:08:35.252Z,18.75
2019-03-28T03:09:31.948Z,18.69
2019-03-28T03:10:28.653Z,18.69
2019-03-28T03:11:25.369Z,18.69
2019-03-28T03:12:22.073Z,18.75
2019-03-28T03:13:19.693Z,18.69
2019-03-28T03:14:16.790Z,18.69
2019-03-28T03:15:13.502Z,18.69
2019-03-28T03:16:10.201Z,18.69
2019-03-28T03:17:06.937Z,18.69
2019-03-28T03:18:03.636Z,18.69
2019-03-28T03:19:00.348Z,18.69
2019-03-28T03:19:57.048Z,18.69
2019-03-28T03:20:53.748Z,18.69
2019-03-28T03:21:50.394Z,18.69
2019-03-28T03:22:47.101Z,18.69
2019-03-28T03:23:43.810Z,18.69
2019-03-28T03:24:40.527Z,18.69
2019-03-28T03:25:37.225Z,18.69
2019-03-28T03:26:33.921Z,18.69
2019-03-28T03:27:30.553Z,18.69
2019-03-28T03:28:27.170Z,18.69
2019-03-28T03:29:23.869Z,18.69
2019-03-28T03:30:20.580Z,18.69
2019-03-28T03:31:20.835Z,18.69
2019-03-28T03:32:15.841Z,18.69
2019-03-28T03:33:12.556Z,18.69
2019-03-28T03:34:09.228Z,18.69
2019-03-28T03:35:06.097Z,18.69
2019-03-28T03:36:02.744Z,18.69
2019-03-28T03:36:59.452Z,18.69
2019-03-28T03:37:56.233Z,18.69
2019-03-28T03:38:52.908Z,18.69
2019-03-28T03:39:49.608Z,18.69
2019-03-28T03:40:46.328Z,18.69
2019-03-28T03:41:43.100Z,18.69
2019-03-28T03:42:39.725Z,18.69
2019-03-28T03:43:36.457Z,18.69
2019-03-28T03:44:33.180Z,18.69
2019-03-28T03:45:29.885Z,18.69
2019-03-28T03:46:27.490Z,18.69
2019-03-28T03:47:24.512Z,18.69
2019-03-28T03:48:21.244Z,18.69
2019-03-28T03:49:17.951Z,18.69
2019-03-28T03:50:14.652Z,18.69
2019-03-28T03:51:11.365Z,18.69
2019-03-28T03:52:08.068Z,18.69
2019-03-28T03:53:04.804Z,18.69
2019-03-28T03:54:01.520Z,18.69
2019-03-28T03:54:58.218Z,18.69
2019-03-28T03:55:54.929Z,18.69
2019-03-28T03:56:51.640Z,18.69
2019-03-28T03:57:48.341Z,18.69
2019-03-28T03:58:45.660Z,18.62
2019-03-28T03:59:42.685Z,18.69
2019-03-28T04:00:39.389Z,18.62
2019-03-28T04:01:36.105Z,18.62
2019-03-28T04:02:32.815Z,18.62
2019-03-28T04:03:29.634Z,18.69
2019-03-28T04:04:26.562Z,18.62
2019-03-28T04:05:23.265Z,18.62
2019-03-28T04:06:19.969Z,18.62
2019-03-28T04:07:16.669Z,18.62
2019-03-28T04:08:13.367Z,18.62
2019-03-28T04:09:10.077Z,18.62
2019-03-28T04:10:06.785Z,18.62
2019-03-28T04:11:03.593Z,18.62
2019-03-28T04:12:00.345Z,18.62
2019-03-28T04:12:57.028Z,18.62
2019-03-28T04:13:53.753Z,18.62
2019-03-28T04:14:50.595Z,18.62
2019-03-28T04:15:47.277Z,18.62
2019-03-28T04:16:43.965Z,18.62
2019-03-28T04:17:40.578Z,18.62
2019-03-28T04:18:37.320Z,18.62
2019-03-28T04:19:34.017Z,18.62
2019-03-28T04:20:30.632Z,18.62
2019-03-28T04:21:27.333Z,18.62
2019-03-28T04:22:24.049Z,18.62
2019-03-28T04:23:20.763Z,18.62
2019-03-28T04:24:17.472Z,18.62
2019-03-28T04:25:14.164Z,18.62
2019-03-28T04:26:10.783Z,18.62
2019-03-28T04:27:07.489Z,18.62
2019-03-28T04:28:04.202Z,18.62
2019-03-28T04:29:00.933Z,18.62
2019-03-28T04:29:57.645Z,18.62
2019-03-28T04:30:54.348Z,18.62
2019-03-28T04:31:51.045Z,18.62
2019-03-28T04:32:47.761Z,18.62
2019-03-28T04:33:44.460Z,18.62
2019-03-28T04:34:41.180Z,18.62
2019-03-28T04:35:37.779Z,18.62
2019-03-28T04:36:34.380Z,18.62
2019-03-28T04:37:31.000Z,18.62
2019-03-28T04:38:27.703Z,18.62
2019-03-28T04:39:24.421Z,18.62
2019-03-28T04:40:21.141Z,18.62
2019-03-28T04:41:17.850Z,18.62
2019-03-28T04:42:14.552Z,18.62
2019-03-28T04:43:11.261Z,18.62
2019-03-28T04:44:07.965Z,18.62
2019-03-28T04:45:05.557Z,18.62
2019-03-28T04:46:02.301Z,18.62
2019-03-28T04:46:59.013Z,18.62
2019-03-28T04:47:55.720Z,18.56
2019-03-28T04:48:52.508Z,18.62
2019-03-28T04:49:49.359Z,18.62
2019-03-28T04:50:46.052Z,18.62
2019-03-28T04:51:42.769Z,18.56
2019-03-28T04:52:39.485Z,18.56
2019-03-28T04:53:36.212Z,18.56
2019-03-28T04:54:32.897Z,18.56
2019-03-28T04:55:29.632Z,18.56
2019-03-28T04:56:26.343Z,18.56
2019-03-28T04:57:23.043Z,18.56
2019-03-28T04:58:21.721Z,18.56
2019-03-28T04:59:18.269Z,18.56
2019-03-28T05:00:15.009Z,18.56
2019-03-28T05:01:11.707Z,18.56
2019-03-28T05:02:08.331Z,18.56
2019-03-28T05:03:05.036Z,18.56
2019-03-28T05:04:01.749Z,18.56
2019-03-28T05:04:58.457Z,18.56
2019-03-28T05:05:55.202Z,18.56
2019-03-28T05:06:51.912Z,18.56
2019-03-28T05:07:48.621Z,18.56
2019-03-28T05:08:45.324Z,18.56
2019-03-28T05:09:42.031Z,18.56
2019-03-28T05:10:38.741Z,18.56
2019-03-28T05:11:35.470Z,18.56
2019-03-28T05:12:32.197Z,18.56
2019-03-28T05:13:28.913Z,18.56
2019-03-28T05:14:25.618Z,18.56
2019-03-28T05:15:22.324Z,18.56
2019-03-28T05:16:19.025Z,18.56
2019-03-28T05:17:15.727Z,18.56
2019-03-28T05:18:12.341Z,18.56
2019-03-28T05:19:09.049Z,18.56
2019-03-28T05:20:05.760Z,18.56
2019-03-28T05:21:02.494Z,18.56
2019-03-28T05:21:59.196Z,18.56
2019-03-28T05:22:55.916Z,18.56
2019-03-28T05:23:52.628Z,18.56
2019-03-28T05:24:49.321Z,18.56
2019-03-28T05:25:46.040Z,18.56
2019-03-28T05:26:42.778Z,18.56
2019-03-28T05:27:39.477Z,18.56
2019-03-28T05:28:36.182Z,18.56
2019-03-28T05:29:32.880Z,18.56
2019-03-28T05:30:29.588Z,18.56
2019-03-28T05:31:26.306Z,18.56
2019-03-28T05:32:23.010Z,18.56
2019-03-28T05:33:19.716Z,18.56
2019-03-28T05:34:16.424Z,18.56
2019-03-28T05:35:13.125Z,18.56
2019-03-28T05:36:09.860Z,18.56
2019-03-28T05:37:06.474Z,18.56
2019-03-28T05:38:03.184Z,18.56
2019-03-28T05:38:59.880Z,18.56
2019-03-28T05:39:56.587Z,18.50
2019-03-28T05:40:53.309Z,18.50
2019-03-28T05:41:50.057Z,18.50
2019-03-28T05:42:46.773Z,18.56
2019-03-28T05:43:45.496Z,18.50
2019-03-28T05:44:41.985Z,18.50
2019-03-28T05:45:38.692Z,18.50
2019-03-28T05:46:35.393Z,18.50
2019-03-28T05:47:32.132Z,18.50
2019-03-28T05:48:28.839Z,18.50
2019-03-28T05:49:25.653Z,18.50
2019-03-28T05:50:22.342Z,18.50
2019-03-28T05:51:19.053Z,18.50
2019-03-28T05:52:15.766Z,18.50
2019-03-28T05:53:12.476Z,18.50
2019-03-28T05:54:09.180Z,18.50
2019-03-28T05:55:05.902Z,18.50
2019-03-28T05:56:02.600Z,18.50
2019-03-28T05:56:59.306Z,18.50
2019-03-28T05:57:56.669Z,18.50
2019-03-28T05:58:54.159Z,18.50
2019-03-28T05:59:50.992Z,18.50
2019-03-28T06:00:51.198Z,18.50
2019-03-28T06:01:46.125Z,18.50
2019-03-28T06:02:42.862Z,18.50
2019-03-28T06:03:39.557Z,18.50
2019-03-28T06:04:36.172Z,18.50
2019-03-28T06:05:32.881Z,18.50
2019-03-28T06:06:29.572Z,18.50
2019-03-28T06:07:26.197Z,18.50
2019-03-28T06:08:22.905Z,18.50
2019-03-28T06:09:19.611Z,18.50
2019-03-28T06:10:16.613Z,18.50
2019-03-28T06:11:13.328Z,18.50
2019-03-28T06:12:10.034Z,18.50
2019-03-28T06:13:06.762Z,18.50
2019-03-28T06:14:03.473Z,18.50
2019-03-28T06:15:00.392Z,18.50
2019-03-28T06:15:57.074Z,18.50
2019-03-28T06:16:53.676Z,18.50
2019-03-28T06:17:50.413Z,18.50
2019-03-28T06:18:47.110Z,18.50
2019-03-28T06:19:43.819Z,18.50
2019-03-28T06:20:40.524Z,18.50
2019-03-28T06:21:39.502Z,18.50
2019-03-28T06:22:35.740Z,18.50
2019-03-28T06:23:32.474Z,18.50
2019-03-28T06:24:29.180Z,18.50
2019-03-28T06:25:25.911Z,18.50
2019-03-28T06:26:22.612Z,18.50
2019-03-28T06:27:19.322Z,18.50
2019-03-28T06:28:16.016Z,18.50
2019-03-28T06:29:23.183Z,18.50
2019-03-28T06:30:11.128Z,18.50
2019-03-28T06:31:07.747Z,18.50
2019-03-28T06:32:04.457Z,18.44
2019-03-28T06:33:01.159Z,18.50
2019-03-28T06:33:57.906Z,18.44
2019-03-28T06:34:54.597Z,18.44
2019-03-28T06:35:51.209Z,18.44
2019-03-28T06:36:47.908Z,18.50
2019-03-28T06:37:44.527Z,18.50
2019-03-28T06:38:41.253Z,18.44
2019-03-28T06:39:37.958Z,18.44
2019-03-28T06:40:34.656Z,18.44
2019-03-28T06:41:31.264Z,18.44
2019-03-28T06:42:27.972Z,18.44
2019-03-28T06:43:24.694Z,18.44
2019-03-28T06:44:21.396Z,18.44
2019-03-28T06:45:18.108Z,18.44
2019-03-28T06:46:14.812Z,18.44
2019-03-28T06:47:11.527Z,18.44
2019-03-28T06:48:08.233Z,18.44
2019-03-28T06:49:04.968Z,18.44
2019-03-28T06:50:01.685Z,18.44
2019-03-28T06:50:58.388Z,18.44
2019-03-28T06:51:55.091Z,18.44
2019-03-28T06:52:51.809Z,18.44
2019-03-28T06:53:48.511Z,18.44
2019-03-28T06:54:45.244Z,18.44
2019-03-28T06:55:41.954Z,18.44
2019-03-28T06:56:38.662Z,18.44
2019-03-28T06:57:35.352Z,18.44
2019-03-28T06:58:31.963Z,18.44
2019-03-28T06:59:37.344Z,18.44
2019-03-28T07:00:27.213Z,18.44
2019-03-28T07:01:23.908Z,18.44
2019-03-28T07:02:21.965Z,18.44
2019-03-28T07:03:18.816Z,18.37
2019-03-28T07:04:15.520Z,18.37
2019-03-28T07:05:12.259Z,18.37
2019-03-28T07:06:08.953Z,18.31
2019-03-28T07:07:05.592Z,18.31
2019-03-28T07:08:03.265Z,18.31
2019-03-28T07:08:59.973Z,18.31
2019-03-28T07:09:56.704Z,18.25
2019-03-28T07:10:53.429Z,18.25
2019-03-28T07:11:50.119Z,18.25
2019-03-28T07:12:46.733Z,18.19
2019-03-28T07:13:43.441Z,18.12
2019-03-28T07:14:40.157Z,18.06
2019-03-28T07:15:37.024Z,18.00
2019-03-28T07:16:33.805Z,17.94
2019-03-28T07:17:30.508Z,17.81
2019-03-28T07:18:27.220Z,17.69
2019-03-28T07:19:23.936Z,17.62
2019-03-28T07:20:20.664Z,17.50
2019-03-28T07:21:18.260Z,17.44
2019-03-28T07:22:15.089Z,17.31
2019-03-28T07:23:11.808Z,17.25
2019-03-28T07:24:08.517Z,17.19
2019-03-28T07:25:05.256Z,17.12
2019-03-28T07:26:01.952Z,17.06
2019-03-28T07:26:58.667Z,17.00
2019-03-28T07:27:55.365Z,16.94
2019-03-28T07:28:54.263Z,16.94
2019-03-28T07:29:51.451Z,16.87
2019-03-28T07:30:48.343Z,16.81
2019-03-28T07:31:45.049Z,16.75
2019-03-28T07:32:43.424Z,16.75
2019-03-28T07:33:40.275Z,16.69
2019-03-28T07:34:36.968Z,16.69
2019-03-28T07:35:33.710Z,16.62
2019-03-28T07:36:30.445Z,16.62
2019-03-28T07:37:28.235Z,16.56
2019-03-28T07:38:25.029Z,16.56
2019-03-28T07:39:21.732Z,16.56
2019-03-28T07:40:18.468Z,16.56
2019-03-28T07:41:16.455Z,16.56
2019-03-28T07:42:13.485Z,16.62
2019-03-28T07:43:10.196Z,16.69
2019-03-28T07:44:06.900Z,16.87
2019-03-28T07:45:03.620Z,17.00
2019-03-28T07:46:00.354Z,17.25
2019-03-28T07:46:57.064Z,17.50
2019-03-28T07:47:53.756Z,17.81
2019-03-28T07:48:50.469Z,18.19
2019-03-28T07:49:47.177Z,18.69
2019-03-28T07:50:43.884Z,19.25
2019-03-28T07:51:40.600Z,22.75
2019-03-28T07:52:37.312Z,25.25
2019-03-28T07:53:34.012Z,25.25
2019-03-28T07:54:30.720Z,27.62
2019-03-28T07:55:27.433Z,31.94
2019-03-28T07:56:24.164Z,34.44
2019-03-28T07:57:20.881Z,35.19
2019-03-28T07:58:17.585Z,35.00
2019-03-28T07:59:14.294Z,34.75
2019-03-28T08:00:11.000Z,34.94
2019-03-28T08:01:07.625Z,35.31
2019-03-28T08:02:04.348Z,35.44
2019-03-28T08:03:01.061Z,35.44
2019-03-28T08:03:57.777Z,35.06
2019-03-28T08:04:54.488Z,33.94
2019-03-28T08:05:51.188Z,32.13
2019-03-28T08:06:50.229Z,30.06
2019-03-28T08:07:47.119Z,28.44
2019-03-28T08:08:44.252Z,28.38
2019-03-28T08:09:41.061Z,29.37
2019-03-28T08:10:37.769Z,30.75
2019-03-28T08:11:34.624Z,32.06
2019-03-28T08:12:31.404Z,33.13
2019-03-28T08:13:28.104Z,33.94
2019-03-28T08:14:24.808Z,34.56
2019-03-28T08:15:21.530Z,35.06
2019-03-28T08:16:18.289Z,35.44
2019-03-28T08:17:14.944Z,35.75
2019-03-28T08:18:11.652Z,36.00
2019-03-28T08:19:08.362Z,36.19
2019-03-28T08:20:05.068Z,36.44
2019-03-28T08:21:01.781Z,36.63
2019-03-28T08:21:58.500Z,36.81
2019-03-28T08:22:55.108Z,37.00
2019-03-28T08:23:51.821Z,37.19
2019-03-28T08:24:48.525Z,37.44
2019-03-28T08:25:45.138Z,37.63
2019-03-28T08:26:41.865Z,37.88
2019-03-28T08:27:38.489Z,38.00
2019-03-28T08:28:35.192Z,37.94
2019-03-28T08:29:31.900Z,37.69
2019-03-28T08:30:28.604Z,37.44
2019-03-28T08:31:25.324Z,37.19
2019-03-28T08:32:24.221Z,36.94
2019-03-28T08:33:20.836Z,36.81
2019-03-28T08:34:18.603Z,36.63
2019-03-28T08:35:15.663Z,36.44
2019-03-28T08:36:12.277Z,36.25
2019-03-28T08:37:08.893Z,35.94
2019-03-28T08:38:05.608Z,35.38
2019-03-28T08:39:02.401Z,34.56
2019-03-28T08:39:59.015Z,33.50
2019-03-28T08:40:55.724Z,32.25
2019-03-28T08:41:52.459Z,31.00
2019-03-28T08:42:49.160Z,30.12
2019-03-28T08:43:45.864Z,30.31
2019-03-28T08:44:42.473Z,31.44
2019-03-28T08:45:39.189Z,33.00
2019-03-28T08:46:35.897Z,34.63
2019-03-28T08:47:32.625Z,36.00
2019-03-28T08:48:29.338Z,36.94
2019-03-28T08:49:26.049Z,37.19
2019-03-28T08:50:22.757Z,37.06
2019-03-28T08:51:19.472Z,36.94
2019-03-28T08:52:16.181Z,36.75
2019-03-28T08:53:12.882Z,36.56
2019-03-28T08:54:09.581Z,36.31
2019-03-28T08:55:09.688Z,36.13
2019-03-28T08:56:04.805Z,35.81
2019-03-28T08:57:01.500Z,35.25
2019-03-28T08:57:58.227Z,34.56
2019-03-28T08:58:54.928Z,33.63
2019-03-28T08:59:51.649Z,32.50
2019-03-28T09:00:52.249Z,31.31
2019-03-28T09:01:47.248Z,30.19
2019-03-28T09:02:43.971Z,29.81
2019-03-28T09:03:40.708Z,30.62
2019-03-28T09:04:37.465Z,32.19
2019-03-28T09:05:34.300Z,33.88
2019-03-28T09:06:31.025Z,35.44
2019-03-28T09:07:27.780Z,36.31
2019-03-28T09:08:24.516Z,36.56
2019-03-28T09:09:21.522Z,36.56
2019-03-28T09:10:18.389Z,36.38
2019-03-28T09:11:15.137Z,36.19
2019-03-28T09:12:11.913Z,35.94
2019-03-28T09:13:08.650Z,35.63
2019-03-28T09:14:05.394Z,35.25
2019-03-28T09:15:02.160Z,34.63
2019-03-28T09:15:58.897Z,33.88
2019-03-28T09:16:55.663Z,32.94
2019-03-28T09:17:52.437Z,31.87
2019-03-28T09:18:49.192Z,30.81
2019-03-28T09:19:45.933Z,29.87
2019-03-28T09:20:42.686Z,29.63
2019-03-28T09:21:39.427Z,30.50
2019-03-28T09:22:38.856Z,32.00
2019-03-28T09:23:34.716Z,33.69
2019-03-28T09:24:31.447Z,35.19
2019-03-28T09:25:28.231Z,35.94
2019-03-28T09:26:24.973Z,36.19
2019-03-28T09:27:21.726Z,36.13
2019-03-28T09:28:18.476Z,35.94
2019-03-28T09:29:15.217Z,35.75
2019-03-28T09:30:12.019Z,35.38
2019-03-28T09:31:19.380Z,34.94
2019-03-28T09:32:07.240Z,34.31
2019-03-28T09:33:04.019Z,33.50
2019-03-28T09:34:00.766Z,32.63
2019-03-28T09:34:57.512Z,31.69
2019-03-28T09:35:54.267Z,30.69
2019-03-28T09:36:50.996Z,29.75
2019-03-28T09:37:47.745Z,29.37
2019-03-28T09:38:44.480Z,29.94
2019-03-28T09:39:41.229Z,31.37
2019-03-28T09:40:38.006Z,33.00
2019-03-28T09:41:34.752Z,34.50
2019-03-28T09:42:31.482Z,35.50
2019-03-28T09:43:28.267Z,35.81
2019-03-28T09:44:25.011Z,35.81
2019-03-28T09:45:21.762Z,35.63
2019-03-28T09:46:18.505Z,35.31
2019-03-28T09:47:15.257Z,34.88
2019-03-28T09:48:12.198Z,34.38
2019-03-28T09:49:09.015Z,33.69
2019-03-28T09:50:05.772Z,32.94
2019-03-28T09:51:02.525Z,32.13
2019-03-28T09:51:59.279Z,31.25
2019-03-28T09:52:56.067Z,30.37
2019-03-28T09:53:52.797Z,29.50
2019-03-28T09:54:49.541Z,29.06
2019-03-28T09:55:46.309Z,29.56
2019-03-28T09:56:43.040Z,30.88
2019-03-28T09:57:39.769Z,32.50
2019-03-28T09:58:36.562Z,34.00
2019-03-28T09:59:36.322Z,35.00
2019-03-28T10:00:33.953Z,35.38
2019-03-28T10:01:31.413Z,35.13
2019-03-28T10:02:28.161Z,34.56
2019-03-28T10:03:24.938Z,33.81
2019-03-28T10:04:21.714Z,32.94
2019-03-28T10:05:18.476Z,31.94
2019-03-28T10:06:15.219Z,31.00
2019-03-28T10:07:11.953Z,30.19
2019-03-28T10:08:08.733Z,29.50
2019-03-28T10:09:05.478Z,28.94
2019-03-28T10:10:03.002Z,28.50
2019-03-28T10:10:59.904Z,28.06
2019-03-28T10:11:56.631Z,27.62
2019-03-28T10:12:53.370Z,27.25
2019-03-28T10:13:50.165Z,27.00
2019-03-28T10:14:46.894Z,26.75
2019-03-28T10:15:43.891Z,26.56
2019-03-28T10:16:40.780Z,26.44
2019-03-28T10:17:37.520Z,26.31
2019-03-28T10:18:34.302Z,26.19
2019-03-28T10:19:31.046Z,26.12
2019-03-28T10:20:27.785Z,26.06
2019-03-28T10:21:24.522Z,25.94
2019-03-28T10:22:22.445Z,25.88
2019-03-28T10:23:19.347Z,25.81
2019-03-28T10:24:16.093Z,25.69
2019-03-28T10:25:13.846Z,25.62
2019-03-28T10:26:11.302Z,25.56
2019-03-28T10:27:08.046Z,25.44
2019-03-28T10:28:04.789Z,25.44
2019-03-28T10:29:01.577Z,25.31
2019-03-28T10:29:58.326Z,25.25
2019-03-28T10:30:55.052Z,25.19
2019-03-28T10:31:51.809Z,25.12
2019-03-28T10:32:48.577Z,25.06
2019-03-28T10:33:45.344Z,25.00
2019-03-28T10:34:42.097Z,24.94
2019-03-28T10:35:38.873Z,24.87
2019-03-28T10:36:35.637Z,24.81
2019-03-28T10:37:32.374Z,24.75
2019-03-28T10:38:29.148Z,24.69
2019-03-28T10:39:25.883Z,24.63
2019-03-28T10:40:22.620Z,24.56
2019-03-28T10:41:19.366Z,24.50
2019-03-28T10:42:16.123Z,24.44
2019-03-28T10:43:12.862Z,24.37
2019-03-28T10:44:09.636Z,24.37
2019-03-28T10:45:06.373Z,24.31
2019-03-28T10:46:03.118Z,24.25
2019-03-28T10:46:59.847Z,24.19
2019-03-28T10:47:56.609Z,24.12
2019-03-28T10:48:54.606Z,24.12
2019-03-28T10:49:51.550Z,24.06
2019-03-28T10:50:48.280Z,24.00
2019-03-28T10:51:45.050Z,23.94
2019-03-28T10:52:41.750Z,23.94
2019-03-28T10:53:38.512Z,23.87
2019-03-28T10:54:35.354Z,23.81
2019-03-28T10:55:32.108Z,23.75
2019-03-28T10:56:28.843Z,23.75
2019-03-28T10:57:30.171Z,23.69
2019-03-28T10:58:24.640Z,23.62
2019-03-28T10:59:23.771Z,23.56
2019-03-28T11:00:24.248Z,23.56
2019-03-28T11:01:36.048Z,23.50
2019-03-28T11:02:17.221Z,23.44
2019-03-28T11:03:13.972Z,23.44
2019-03-28T11:04:10.717Z,23.38
2019-03-28T11:05:07.468Z,23.31
2019-03-28T11:06:04.216Z,23.31
2019-03-28T11:07:00.957Z,23.25
2019-03-28T11:07:57.697Z,23.25
2019-03-28T11:08:54.472Z,23.19
2019-03-28T11:09:51.214Z,23.12
2019-03-28T11:10:47.941Z,23.12
2019-03-28T11:11:44.677Z,23.06
2019-03-28T11:12:41.438Z,23.00
2019-03-28T11:13:38.189Z,23.00
2019-03-28T11:14:34.972Z,22.94
2019-03-28T11:15:31.701Z,22.94
2019-03-28T11:16:29.409Z,22.87
2019-03-28T11:17:26.204Z,22.87
2019-03-28T11:18:22.948Z,22.81
2019-03-28T11:19:19.729Z,22.81
2019-03-28T11:20:16.473Z,22.75
2019-03-28T11:21:13.228Z,22.69
2019-03-28T11:22:09.964Z,22.69
2019-03-28T11:23:07.274Z,22.62
2019-03-28T11:24:04.085Z,22.62
2019-03-28T11:25:00.831Z,22.56
2019-03-28T11:25:57.627Z,22.56
2019-03-28T11:26:54.353Z,22.50
2019-03-28T11:27:51.096Z,22.50
2019-03-28T11:28:47.873Z,22.44
2019-03-28T11:29:44.621Z,22.44
2019-03-28T11:30:41.359Z,22.44
2019-03-28T11:31:46.697Z,22.37
2019-03-28T11:32:36.666Z,22.37
2019-03-28T11:33:33.449Z,22.31
2019-03-28T11:34:30.217Z,22.31
2019-03-28T11:35:26.976Z,22.25
2019-03-28T11:36:23.713Z,22.25
2019-03-28T11:37:26.447Z,22.19
2019-03-28T11:38:18.999Z,22.19
2019-03-28T11:39:15.773Z,22.13
2019-03-28T11:40:12.989Z,22.13
2019-03-28T11:41:09.866Z,22.13
2019-03-28T11:42:06.595Z,22.06
2019-03-28T11:43:03.347Z,22.06
2019-03-28T11:44:00.077Z,22.00
2019-03-28T11:44:56.847Z,22.00
2019-03-28T11:45:53.592Z,22.00
2019-03-28T11:46:50.346Z,21.94
2019-03-28T11:47:47.082Z,21.94
2019-03-28T11:48:43.837Z,21.87
2019-03-28T11:49:40.673Z,21.87
2019-03-28T11:50:37.422Z,21.87
2019-03-28T11:51:36.233Z,21.81
2019-03-28T11:52:32.696Z,21.81
2019-03-28T11:53:29.440Z,21.81
2019-03-28T11:54:26.213Z,21.75
2019-03-28T11:55:22.960Z,21.75
2019-03-28T11:56:19.719Z,21.69
2019-03-28T11:57:16.583Z,21.69
2019-03-28T11:58:13.459Z,21.69
2019-03-28T11:59:10.256Z,21.62
2019-03-28T12:00:07.006Z,21.62
2019-03-28T12:01:03.790Z,21.62
2019-03-28T12:02:13.806Z,21.56
2019-03-28T12:02:59.062Z,21.56
2019-03-28T12:03:55.865Z,21.56
2019-03-28T12:04:52.689Z,21.50
2019-03-28T12:05:49.425Z,21.50
2019-03-28T12:06:48.771Z,21.50
2019-03-28T12:07:44.709Z,21.50
2019-03-28T12:08:41.461Z,21.44
2019-03-28T12:09:38.245Z,21.44
2019-03-28T12:10:34.954Z,21.44
2019-03-28T12:11:31.718Z,21.44
2019-03-28T12:12:28.470Z,21.37